Westwood, Michigan
Current Conditions -  °F | °C
As of 12:53 PM on Saturday 25 Oct 2014 (Local Time) from KAZO Reporting Station
Few Clouds Few Clouds  
Wind Chill: 64°   Ceiling: Unl
Heat Index: 64°   Visibility: 10mi
Dew Point: 51°   Wind: 18mph
Humidity: 63%   Direction: 300°WNW
Pressure: 29.88"   Gusts: NA
Location:  42.3033°N, 85.7028°W
Report Text: KAZO 251653Z 30016KT 10SM FEW024 18/11 A2988 RMK AO2 SLP121 T01780106
Loading
Personal Weather Stations






























Interactive Weather Map
Tropical Storm Tracking
New forecast layout! Learn more

10-Day Weather Forecast

Advertisements
Track Severe Weather on mobile